sensor_id;sensor_type;location;lat;lon;timestamp;P1;durP1;ratioP1;P2;durP2;ratioP2
50393;SDS011;36308;46.312;25.288;2023-05-29T00:01:12;9.60;;;5.22;;
50393;SDS011;36308;46.312;25.288;2023-05-29T00:03:38;11.13;;;6.05;;
50393;SDS011;36308;46.312;25.288;2023-05-29T00:06:03;7.72;;;5.47;;
50393;SDS011;36308;46.312;25.288;2023-05-29T00:08:31;9.10;;;5.60;;
50393;SDS011;36308;46.312;25.288;2023-05-29T00:10:57;20.95;;;6.22;;
50393;SDS011;36308;46.312;25.288;2023-05-29T00:13:23;8.40;;;5.63;;
50393;SDS011;36308;46.312;25.288;2023-05-29T00:15:48;9.38;;;5.65;;
50393;SDS011;36308;46.312;25.288;2023-05-29T00:18:14;14.32;;;5.40;;
50393;SDS011;36308;46.312;25.288;2023-05-29T00:20:39;7.35;;;5.50;;
50393;SDS011;36308;46.312;25.288;2023-05-29T00:23:05;9.73;;;5.47;;
50393;SDS011;36308;46.312;25.288;2023-05-29T00:25:31;9.88;;;5.45;;
50393;SDS011;36308;46.312;25.288;2023-05-29T00:27:57;8.50;;;5.25;;
50393;SDS011;36308;46.312;25.288;2023-05-29T00:30:23;8.15;;;5.35;;
50393;SDS011;36308;46.312;25.288;2023-05-29T00:32:48;8.73;;;5.22;;
50393;SDS011;36308;46.312;25.288;2023-05-29T00:35:14;9.38;;;5.10;;
50393;SDS011;36308;46.312;25.288;2023-05-29T00:37:40;10.07;;;5.25;;
50393;SDS011;36308;46.312;25.288;2023-05-29T00:40:05;7.15;;;5.20;;
50393;SDS011;36308;46.312;25.288;2023-05-29T00:42:32;7.75;;;5.60;;
50393;SDS011;36308;46.312;25.288;2023-05-29T00:44:57;11.52;;;5.20;;
50393;SDS011;36308;46.312;25.288;2023-05-29T00:47:23;10.82;;;5.93;;
50393;SDS011;36308;46.312;25.288;2023-05-29T00:49:49;9.70;;;6.07;;
50393;SDS011;36308;46.312;25.288;2023-05-29T00:52:16;9.00;;;5.50;;
50393;SDS011;36308;46.312;25.288;2023-05-29T00:54:43;9.93;;;5.15;;
50393;SDS011;36308;46.312;25.288;2023-05-29T00:57:10;10.50;;;5.43;;
50393;SDS011;36308;46.312;25.288;2023-05-29T00:59:37;8.23;;;5.60;;
50393;SDS011;36308;46.312;25.288;2023-05-29T01:02:03;8.10;;;5.45;;
50393;SDS011;36308;46.312;25.288;2023-05-29T01:04:29;7.38;;;5.30;;
50393;SDS011;36308;46.312;25.288;2023-05-29T01:06:58;10.27;;;5.22;;
50393;SDS011;36308;46.312;25.288;2023-05-29T01:09:24;7.10;;;5.00;;
50393;SDS011;36308;46.312;25.288;2023-05-29T01:22:54;7.93;;;5.47;;
50393;SDS011;36308;46.312;25.288;2023-05-29T01:28:20;8.13;;;5.35;;
50393;SDS011;36308;46.312;25.288;2023-05-29T01:30:49;9.88;;;5.20;;
50393;SDS011;36308;46.312;25.288;2023-05-29T01:33:16;7.70;;;5.10;;
50393;SDS011;36308;46.312;25.288;2023-05-29T01:35:41;7.72;;;5.10;;
50393;SDS011;36308;46.312;25.288;2023-05-29T01:38:07;12.68;;;5.82;;
50393;SDS011;36308;46.312;25.288;2023-05-29T01:40:32;10.93;;;6.18;;
50393;SDS011;36308;46.312;25.288;2023-05-29T01:42:59;8.77;;;5.65;;
50393;SDS011;36308;46.312;25.288;2023-05-29T01:45:25;8.18;;;5.40;;
50393;SDS011;36308;46.312;25.288;2023-05-29T01:47:51;10.45;;;5.57;;
50393;SDS011;36308;46.312;25.288;2023-05-29T01:50:17;8.45;;;5.13;;
50393;SDS011;36308;46.312;25.288;2023-05-29T01:52:44;8.55;;;5.15;;
50393;SDS011;36308;46.312;25.288;2023-05-29T01:55:09;9.07;;;5.65;;
50393;SDS011;36308;46.312;25.288;2023-05-29T01:57:35;7.53;;;5.22;;
50393;SDS011;36308;46.312;25.288;2023-05-29T02:00:04;10.27;;;5.35;;
50393;SDS011;36308;46.312;25.288;2023-05-29T02:02:39;8.13;;;4.93;;
50393;SDS011;36308;46.312;25.288;2023-05-29T02:05:06;9.02;;;5.30;;
50393;SDS011;36308;46.312;25.288;2023-05-29T02:07:33;16.50;;;5.22;;
50393;SDS011;36308;46.312;25.288;2023-05-29T02:10:02;7.35;;;5.18;;
50393;SDS011;36308;46.312;25.288;2023-05-29T02:12:29;8.65;;;5.68;;
50393;SDS011;36308;46.312;25.288;2023-05-29T02:14:54;10.23;;;5.35;;
50393;SDS011;36308;46.312;25.288;2023-05-29T02:17:21;10.73;;;5.57;;
50393;SDS011;36308;46.312;25.288;2023-05-29T02:19:46;8.88;;;5.90;;
50393;SDS011;36308;46.312;25.288;2023-05-29T02:22:11;7.82;;;5.38;;
50393;SDS011;36308;46.312;25.288;2023-05-29T02:24:37;10.07;;;5.85;;
50393;SDS011;36308;46.312;25.288;2023-05-29T02:27:03;12.63;;;5.65;;
50393;SDS011;36308;46.312;25.288;2023-05-29T02:29:28;10.02;;;5.20;;
50393;SDS011;36308;46.312;25.288;2023-05-29T02:31:54;10.50;;;5.28;;
50393;SDS011;36308;46.312;25.288;2023-05-29T02:34:19;7.88;;;5.30;;
50393;SDS011;36308;46.312;25.288;2023-05-29T02:36:47;7.18;;;5.10;;
50393;SDS011;36308;46.312;25.288;2023-05-29T02:39:13;8.20;;;5.72;;
50393;SDS011;36308;46.312;25.288;2023-05-29T02:41:39;9.50;;;6.03;;
50393;SDS011;36308;46.312;25.288;2023-05-29T02:44:04;9.43;;;5.72;;
50393;SDS011;36308;46.312;25.288;2023-05-29T02:46:30;7.65;;;5.25;;
50393;SDS011;36308;46.312;25.288;2023-05-29T02:48:56;8.13;;;5.80;;
50393;SDS011;36308;46.312;25.288;2023-05-29T02:51:21;7.63;;;5.13;;
50393;SDS011;36308;46.312;25.288;2023-05-29T02:53:47;9.35;;;4.95;;
50393;SDS011;36308;46.312;25.288;2023-05-29T02:56:13;8.80;;;5.22;;
50393;SDS011;36308;46.312;25.288;2023-05-29T02:58:40;8.48;;;5.60;;
50393;SDS011;36308;46.312;25.288;2023-05-29T03:01:07;10.45;;;4.57;;
50393;SDS011;36308;46.312;25.288;2023-05-29T03:03:32;9.35;;;5.38;;
50393;SDS011;36308;46.312;25.288;2023-05-29T03:05:58;11.10;;;5.53;;
50393;SDS011;36308;46.312;25.288;2023-05-29T03:08:42;9.65;;;5.30;;
50393;SDS011;36308;46.312;25.288;2023-05-29T03:11:10;7.95;;;5.68;;
50393;SDS011;36308;46.312;25.288;2023-05-29T03:13:36;8.90;;;5.47;;
50393;SDS011;36308;46.312;25.288;2023-05-29T03:16:02;12.60;;;6.15;;
50393;SDS011;36308;46.312;25.288;2023-05-29T03:18:28;9.32;;;5.95;;
50393;SDS011;36308;46.312;25.288;2023-05-29T03:20:54;16.10;;;6.68;;
50393;SDS011;36308;46.312;25.288;2023-05-29T03:23:20;10.23;;;6.40;;
50393;SDS011;36308;46.312;25.288;2023-05-29T03:25:45;11.32;;;5.88;;
50393;SDS011;36308;46.312;25.288;2023-05-29T03:28:11;9.85;;;5.25;;
50393;SDS011;36308;46.312;25.288;2023-05-29T03:30:36;11.88;;;4.93;;
50393;SDS011;36308;46.312;25.288;2023-05-29T03:33:02;13.68;;;6.68;;
50393;SDS011;36308;46.312;25.288;2023-05-29T03:35:31;11.00;;;5.43;;
50393;SDS011;36308;46.312;25.288;2023-05-29T03:37:56;9.75;;;7.13;;
50393;SDS011;36308;46.312;25.288;2023-05-29T03:40:22;11.10;;;6.95;;
50393;SDS011;36308;46.312;25.288;2023-05-29T03:42:48;11.88;;;7.03;;
50393;SDS011;36308;46.312;25.288;2023-05-29T03:45:13;12.30;;;7.60;;
50393;SDS011;36308;46.312;25.288;2023-05-29T03:47:39;14.00;;;7.10;;
50393;SDS011;36308;46.312;25.288;2023-05-29T03:50:04;15.45;;;9.70;;
50393;SDS011;36308;46.312;25.288;2023-05-29T03:52:30;12.25;;;7.30;;
50393;SDS011;36308;46.312;25.288;2023-05-29T03:54:56;19.50;;;6.40;;
50393;SDS011;36308;46.312;25.288;2023-05-29T03:57:21;14.80;;;5.78;;
50393;SDS011;36308;46.312;25.288;2023-05-29T03:59:47;12.20;;;6.88;;
50393;SDS011;36308;46.312;25.288;2023-05-29T04:02:12;11.65;;;7.63;;
50393;SDS011;36308;46.312;25.288;2023-05-29T04:04:37;10.95;;;7.85;;
50393;SDS011;36308;46.312;25.288;2023-05-29T04:07:04;12.68;;;8.40;;
50393;SDS011;36308;46.312;25.288;2023-05-29T04:09:32;14.52;;;8.85;;
50393;SDS011;36308;46.312;25.288;2023-05-29T04:11:58;13.55;;;8.30;;
50393;SDS011;36308;46.312;25.288;2023-05-29T04:14:24;15.15;;;7.70;;
50393;SDS011;36308;46.312;25.288;2023-05-29T04:16:50;11.50;;;6.63;;
50393;SDS011;36308;46.312;25.288;2023-05-29T04:19:15;11.30;;;7.10;;
50393;SDS011;36308;46.312;25.288;2023-05-29T04:21:41;9.75;;;6.63;;
50393;SDS011;36308;46.312;25.288;2023-05-29T04:24:07;10.85;;;7.35;;
50393;SDS011;36308;46.312;25.288;2023-05-29T04:26:33;10.77;;;6.68;;
50393;SDS011;36308;46.312;25.288;2023-05-29T04:28:58;11.93;;;6.68;;
50393;SDS011;36308;46.312;25.288;2023-05-29T04:31:24;10.82;;;6.15;;
50393;SDS011;36308;46.312;25.288;2023-05-29T04:33:51;14.15;;;6.53;;
50393;SDS011;36308;46.312;25.288;2023-05-29T04:36:23;10.63;;;6.63;;
50393;SDS011;36308;46.312;25.288;2023-05-29T04:38:52;11.98;;;6.95;;
50393;SDS011;36308;46.312;25.288;2023-05-29T04:41:18;11.45;;;6.60;;
50393;SDS011;36308;46.312;25.288;2023-05-29T04:43:48;9.52;;;6.53;;
50393;SDS011;36308;46.312;25.288;2023-05-29T04:46:16;9.57;;;6.45;;
50393;SDS011;36308;46.312;25.288;2023-05-29T04:48:42;13.10;;;6.65;;
50393;SDS011;36308;46.312;25.288;2023-05-29T04:51:09;12.68;;;7.07;;
50393;SDS011;36308;46.312;25.288;2023-05-29T04:53:37;10.60;;;6.70;;
50393;SDS011;36308;46.312;25.288;2023-05-29T04:56:03;8.75;;;6.47;;
50393;SDS011;36308;46.312;25.288;2023-05-29T04:58:28;13.80;;;7.22;;
50393;SDS011;36308;46.312;25.288;2023-05-29T05:00:54;11.18;;;6.70;;
50393;SDS011;36308;46.312;25.288;2023-05-29T05:03:23;14.65;;;7.13;;
50393;SDS011;36308;46.312;25.288;2023-05-29T05:05:50;11.55;;;7.03;;
50393;SDS011;36308;46.312;25.288;2023-05-29T05:08:16;12.38;;;7.15;;
50393;SDS011;36308;46.312;25.288;2023-05-29T05:10:42;12.43;;;7.80;;
50393;SDS011;36308;46.312;25.288;2023-05-29T05:13:08;12.52;;;7.22;;
50393;SDS011;36308;46.312;25.288;2023-05-29T05:15:33;12.25;;;6.88;;
50393;SDS011;36308;46.312;25.288;2023-05-29T05:17:59;12.02;;;7.03;;
50393;SDS011;36308;46.312;25.288;2023-05-29T05:20:25;11.27;;;6.32;;
50393;SDS011;36308;46.312;25.288;2023-05-29T05:22:50;15.13;;;6.00;;
50393;SDS011;36308;46.312;25.288;2023-05-29T05:25:16;13.25;;;6.55;;
50393;SDS011;36308;46.312;25.288;2023-05-29T05:27:42;11.77;;;7.20;;
50393;SDS011;36308;46.312;25.288;2023-05-29T05:30:07;16.08;;;10.90;;
50393;SDS011;36308;46.312;25.288;2023-05-29T05:32:33;11.48;;;7.53;;
50393;SDS011;36308;46.312;25.288;2023-05-29T05:35:00;15.00;;;7.35;;
50393;SDS011;36308;46.312;25.288;2023-05-29T05:37:25;10.25;;;6.25;;
50393;SDS011;36308;46.312;25.288;2023-05-29T05:39:51;10.48;;;7.25;;
50393;SDS011;36308;46.312;25.288;2023-05-29T05:42:18;9.15;;;6.43;;
50393;SDS011;36308;46.312;25.288;2023-05-29T05:44:44;9.90;;;6.85;;
50393;SDS011;36308;46.312;25.288;2023-05-29T05:47:10;14.90;;;7.43;;
50393;SDS011;36308;46.312;25.288;2023-05-29T05:49:36;9.55;;;6.38;;
50393;SDS011;36308;46.312;25.288;2023-05-29T05:52:01;10.63;;;6.32;;
50393;SDS011;36308;46.312;25.288;2023-05-29T05:54:27;9.23;;;5.97;;
50393;SDS011;36308;46.312;25.288;2023-05-29T05:56:52;9.75;;;6.03;;
50393;SDS011;36308;46.312;25.288;2023-05-29T05:59:18;11.30;;;6.22;;
50393;SDS011;36308;46.312;25.288;2023-05-29T06:01:43;17.02;;;8.27;;
50393;SDS011;36308;46.312;25.288;2023-05-29T06:04:09;12.57;;;6.80;;
50393;SDS011;36308;46.312;25.288;2023-05-29T06:06:34;10.52;;;6.38;;
50393;SDS011;36308;46.312;25.288;2023-05-29T06:09:00;8.55;;;5.88;;
50393;SDS011;36308;46.312;25.288;2023-05-29T06:11:26;9.63;;;5.63;;
50393;SDS011;36308;46.312;25.288;2023-05-29T06:13:52;8.75;;;5.53;;
50393;SDS011;36308;46.312;25.288;2023-05-29T06:16:18;23.27;;;7.28;;
50393;SDS011;36308;46.312;25.288;2023-05-29T06:18:43;16.88;;;5.70;;
50393;SDS011;36308;46.312;25.288;2023-05-29T06:21:09;8.90;;;5.43;;
50393;SDS011;36308;46.312;25.288;2023-05-29T06:23:36;9.70;;;5.20;;
50393;SDS011;36308;46.312;25.288;2023-05-29T06:26:02;8.60;;;4.90;;
50393;SDS011;36308;46.312;25.288;2023-05-29T06:28:28;8.75;;;5.13;;
50393;SDS011;36308;46.312;25.288;2023-05-29T06:30:54;11.77;;;5.85;;
50393;SDS011;36308;46.312;25.288;2023-05-29T06:33:20;12.32;;;5.20;;
50393;SDS011;36308;46.312;25.288;2023-05-29T06:35:46;13.65;;;5.57;;
50393;SDS011;36308;46.312;25.288;2023-05-29T06:38:13;9.05;;;5.75;;
50393;SDS011;36308;46.312;25.288;2023-05-29T06:40:39;9.52;;;5.80;;
50393;SDS011;36308;46.312;25.288;2023-05-29T06:43:04;11.05;;;5.13;;
50393;SDS011;36308;46.312;25.288;2023-05-29T06:45:30;9.48;;;6.10;;
50393;SDS011;36308;46.312;25.288;2023-05-29T06:47:55;8.27;;;5.35;;
50393;SDS011;36308;46.312;25.288;2023-05-29T06:50:21;10.80;;;5.35;;
50393;SDS011;36308;46.312;25.288;2023-05-29T06:52:46;10.23;;;5.28;;
50393;SDS011;36308;46.312;25.288;2023-05-29T06:55:12;11.35;;;5.13;;
50393;SDS011;36308;46.312;25.288;2023-05-29T06:57:38;9.57;;;5.50;;
50393;SDS011;36308;46.312;25.288;2023-05-29T07:00:06;11.32;;;5.57;;
50393;SDS011;36308;46.312;25.288;2023-05-29T07:02:34;9.85;;;4.00;;
50393;SDS011;36308;46.312;25.288;2023-05-29T07:05:00;10.48;;;4.90;;
50393;SDS011;36308;46.312;25.288;2023-05-29T07:07:25;6.93;;;4.32;;
50393;SDS011;36308;46.312;25.288;2023-05-29T07:09:51;10.25;;;4.88;;
50393;SDS011;36308;46.312;25.288;2023-05-29T07:12:17;8.55;;;4.50;;
50393;SDS011;36308;46.312;25.288;2023-05-29T07:14:42;8.30;;;4.60;;
50393;SDS011;36308;46.312;25.288;2023-05-29T07:17:08;6.75;;;4.45;;
50393;SDS011;36308;46.312;25.288;2023-05-29T07:19:34;8.57;;;4.63;;
50393;SDS011;36308;46.312;25.288;2023-05-29T07:21:59;9.30;;;4.82;;
50393;SDS011;36308;46.312;25.288;2023-05-29T07:24:25;5.60;;;3.80;;
50393;SDS011;36308;46.312;25.288;2023-05-29T07:26:51;14.10;;;6.07;;
50393;SDS011;36308;46.312;25.288;2023-05-29T07:29:17;13.02;;;4.45;;
50393;SDS011;36308;46.312;25.288;2023-05-29T07:31:46;9.43;;;4.88;;
50393;SDS011;36308;46.312;25.288;2023-05-29T07:34:12;8.98;;;4.80;;
50393;SDS011;36308;46.312;25.288;2023-05-29T07:36:44;8.13;;;4.47;;
50393;SDS011;36308;46.312;25.288;2023-05-29T07:39:33;9.23;;;4.32;;
50393;SDS011;36308;46.312;25.288;2023-05-29T07:42:02;7.45;;;4.47;;
50393;SDS011;36308;46.312;25.288;2023-05-29T07:44:28;9.68;;;4.45;;
50393;SDS011;36308;46.312;25.288;2023-05-29T07:46:54;7.68;;;4.25;;
50393;SDS011;36308;46.312;25.288;2023-05-29T07:49:20;7.72;;;4.20;;
50393;SDS011;36308;46.312;25.288;2023-05-29T07:51:45;7.72;;;4.05;;
50393;SDS011;36308;46.312;25.288;2023-05-29T07:54:11;9.25;;;4.60;;
50393;SDS011;36308;46.312;25.288;2023-05-29T07:56:37;9.07;;;4.13;;
50393;SDS011;36308;46.312;25.288;2023-05-29T07:59:03;7.63;;;4.10;;
50393;SDS011;36308;46.312;25.288;2023-05-29T08:01:30;10.10;;;4.10;;
50393;SDS011;36308;46.312;25.288;2023-05-29T08:03:56;8.68;;;3.95;;
50393;SDS011;36308;46.312;25.288;2023-05-29T08:06:21;8.95;;;4.57;;
50393;SDS011;36308;46.312;25.288;2023-05-29T08:08:47;9.48;;;4.63;;
50393;SDS011;36308;46.312;25.288;2023-05-29T08:11:12;11.40;;;5.03;;
50393;SDS011;36308;46.312;25.288;2023-05-29T08:13:38;13.77;;;5.55;;
50393;SDS011;36308;46.312;25.288;2023-05-29T08:16:04;7.07;;;3.90;;
50393;SDS011;36308;46.312;25.288;2023-05-29T08:18:30;5.97;;;4.15;;
50393;SDS011;36308;46.312;25.288;2023-05-29T08:21:00;12.27;;;5.00;;
50393;SDS011;36308;46.312;25.288;2023-05-29T08:23:26;7.13;;;4.40;;
50393;SDS011;36308;46.312;25.288;2023-05-29T08:25:51;9.63;;;4.50;;
50393;SDS011;36308;46.312;25.288;2023-05-29T08:28:17;7.65;;;4.15;;
50393;SDS011;36308;46.312;25.288;2023-05-29T08:30:42;7.40;;;4.13;;
50393;SDS011;36308;46.312;25.288;2023-05-29T08:33:08;9.65;;;3.95;;
50393;SDS011;36308;46.312;25.288;2023-05-29T08:35:33;9.63;;;4.13;;
50393;SDS011;36308;46.312;25.288;2023-05-29T08:37:59;6.65;;;3.70;;
50393;SDS011;36308;46.312;25.288;2023-05-29T08:40:25;8.93;;;4.28;;
50393;SDS011;36308;46.312;25.288;2023-05-29T08:42:53;7.78;;;4.53;;
50393;SDS011;36308;46.312;25.288;2023-05-29T08:45:27;9.40;;;4.13;;
50393;SDS011;36308;46.312;25.288;2023-05-29T08:47:55;9.77;;;4.30;;
50393;SDS011;36308;46.312;25.288;2023-05-29T08:50:25;9.52;;;4.28;;
50393;SDS011;36308;46.312;25.288;2023-05-29T08:52:51;7.35;;;3.70;;
50393;SDS011;36308;46.312;25.288;2023-05-29T08:55:17;8.13;;;3.95;;
50393;SDS011;36308;46.312;25.288;2023-05-29T08:57:42;7.40;;;4.10;;
50393;SDS011;36308;46.312;25.288;2023-05-29T09:00:09;8.25;;;4.20;;
50393;SDS011;36308;46.312;25.288;2023-05-29T09:02:40;8.60;;;3.95;;
50393;SDS011;36308;46.312;25.288;2023-05-29T09:05:08;8.13;;;4.35;;
50393;SDS011;36308;46.312;25.288;2023-05-29T09:07:35;8.10;;;4.40;;
50393;SDS011;36308;46.312;25.288;2023-05-29T09:10:04;6.75;;;4.03;;
50393;SDS011;36308;46.312;25.288;2023-05-29T09:12:33;8.80;;;4.32;;
50393;SDS011;36308;46.312;25.288;2023-05-29T09:14:59;8.73;;;4.00;;
50393;SDS011;36308;46.312;25.288;2023-05-29T09:17:29;7.80;;;4.40;;
50393;SDS011;36308;46.312;25.288;2023-05-29T09:19:57;8.15;;;4.25;;
50393;SDS011;36308;46.312;25.288;2023-05-29T09:22:22;6.05;;;3.70;;
50393;SDS011;36308;46.312;25.288;2023-05-29T09:24:48;8.43;;;4.40;;
50393;SDS011;36308;46.312;25.288;2023-05-29T09:27:14;9.38;;;4.15;;
50393;SDS011;36308;46.312;25.288;2023-05-29T09:29:40;8.63;;;4.38;;
50393;SDS011;36308;46.312;25.288;2023-05-29T09:32:07;7.18;;;3.60;;
50393;SDS011;36308;46.312;25.288;2023-05-29T09:34:34;8.30;;;4.03;;
50393;SDS011;36308;46.312;25.288;2023-05-29T09:37:03;8.40;;;3.75;;
50393;SDS011;36308;46.312;25.288;2023-05-29T09:39:48;9.00;;;4.05;;
50393;SDS011;36308;46.312;25.288;2023-05-29T09:42:14;7.93;;;3.75;;
50393;SDS011;36308;46.312;25.288;2023-05-29T09:44:41;6.15;;;4.05;;
50393;SDS011;36308;46.312;25.288;2023-05-29T09:47:09;6.72;;;3.72;;
50393;SDS011;36308;46.312;25.288;2023-05-29T09:49:43;8.43;;;4.22;;
50393;SDS011;36308;46.312;25.288;2023-05-29T09:52:11;7.82;;;3.95;;
50393;SDS011;36308;46.312;25.288;2023-05-29T09:54:41;6.07;;;3.50;;
50393;SDS011;36308;46.312;25.288;2023-05-29T09:57:10;7.65;;;3.83;;
50393;SDS011;36308;46.312;25.288;2023-05-29T09:59:40;6.63;;;3.67;;
50393;SDS011;36308;46.312;25.288;2023-05-29T10:02:10;5.25;;;3.38;;
50393;SDS011;36308;46.312;25.288;2023-05-29T10:04:37;7.90;;;4.05;;
50393;SDS011;36308;46.312;25.288;2023-05-29T10:07:08;6.63;;;3.75;;
50393;SDS011;36308;46.312;25.288;2023-05-29T10:09:45;8.23;;;4.25;;
50393;SDS011;36308;46.312;25.288;2023-05-29T10:12:17;6.10;;;3.58;;
50393;SDS011;36308;46.312;25.288;2023-05-29T10:14:46;5.43;;;3.78;;
50393;SDS011;36308;46.312;25.288;2023-05-29T10:17:15;7.25;;;3.45;;
50393;SDS011;36308;46.312;25.288;2023-05-29T10:19:48;7.00;;;3.88;;
50393;SDS011;36308;46.312;25.288;2023-05-29T10:22:16;13.52;;;9.20;;
50393;SDS011;36308;46.312;25.288;2023-05-29T10:24:47;7.10;;;4.43;;
50393;SDS011;36308;46.312;25.288;2023-05-29T10:27:15;9.45;;;4.10;;
50393;SDS011;36308;46.312;25.288;2023-05-29T10:29:52;5.82;;;3.25;;
50393;SDS011;36308;46.312;25.288;2023-05-29T10:35:29;5.35;;;3.70;;
50393;SDS011;36308;46.312;25.288;2023-05-29T10:38:09;7.90;;;3.75;;
50393;SDS011;36308;46.312;25.288;2023-05-29T10:40:37;7.35;;;4.43;;
50393;SDS011;36308;46.312;25.288;2023-05-29T10:43:02;8.23;;;4.32;;
50393;SDS011;36308;46.312;25.288;2023-05-29T10:48:39;7.95;;;3.75;;
50393;SDS011;36308;46.312;25.288;2023-05-29T10:50:45;6.22;;;3.90;;
50393;SDS011;36308;46.312;25.288;2023-05-29T10:53:16;8.35;;;4.30;;
50393;SDS011;36308;46.312;25.288;2023-05-29T10:55:44;7.75;;;3.25;;
50393;SDS011;36308;46.312;25.288;2023-05-29T10:58:14;8.75;;;4.25;;
50393;SDS011;36308;46.312;25.288;2023-05-29T11:00:44;7.95;;;4.00;;
50393;SDS011;36308;46.312;25.288;2023-05-29T11:03:13;6.65;;;3.58;;
50393;SDS011;36308;46.312;25.288;2023-05-29T11:05:56;6.72;;;3.65;;
50393;SDS011;36308;46.312;25.288;2023-05-29T11:13:54;7.97;;;3.67;;
50393;SDS011;36308;46.312;25.288;2023-05-29T11:18:55;5.72;;;3.65;;
50393;SDS011;36308;46.312;25.288;2023-05-29T11:24:00;4.50;;;3.42;;
50393;SDS011;36308;46.312;25.288;2023-05-29T11:26:33;5.97;;;3.40;;
50393;SDS011;36308;46.312;25.288;2023-05-29T11:29:04;5.70;;;3.17;;
50393;SDS011;36308;46.312;25.288;2023-05-29T11:31:32;6.75;;;3.70;;
50393;SDS011;36308;46.312;25.288;2023-05-29T11:34:00;10.60;;;3.92;;
50393;SDS011;36308;46.312;25.288;2023-05-29T11:36:29;7.50;;;3.75;;
50393;SDS011;36308;46.312;25.288;2023-05-29T11:38:56;13.65;;;4.30;;
50393;SDS011;36308;46.312;25.288;2023-05-29T11:41:22;6.75;;;3.63;;
50393;SDS011;36308;46.312;25.288;2023-05-29T11:43:57;5.95;;;4.00;;
50393;SDS011;36308;46.312;25.288;2023-05-29T11:46:27;5.63;;;3.33;;
50393;SDS011;36308;46.312;25.288;2023-05-29T11:48:56;5.43;;;3.15;;
50393;SDS011;36308;46.312;25.288;2023-05-29T11:51:21;7.68;;;4.18;;
50393;SDS011;36308;46.312;25.288;2023-05-29T11:53:47;5.93;;;4.07;;
50393;SDS011;36308;46.312;25.288;2023-05-29T11:56:13;5.18;;;3.47;;
50393;SDS011;36308;46.312;25.288;2023-05-29T11:58:40;9.15;;;3.58;;
50393;SDS011;36308;46.312;25.288;2023-05-29T12:01:06;7.28;;;3.22;;
50393;SDS011;36308;46.312;25.288;2023-05-29T12:03:42;6.00;;;3.60;;
50393;SDS011;36308;46.312;25.288;2023-05-29T12:06:09;5.70;;;3.33;;
50393;SDS011;36308;46.312;25.288;2023-05-29T12:08:38;6.28;;;3.17;;
50393;SDS011;36308;46.312;25.288;2023-05-29T12:11:04;5.43;;;2.88;;
50393;SDS011;36308;46.312;25.288;2023-05-29T12:13:30;5.45;;;3.45;;
50393;SDS011;36308;46.312;25.288;2023-05-29T12:15:56;5.50;;;3.13;;
50393;SDS011;36308;46.312;25.288;2023-05-29T12:18:25;7.30;;;3.10;;
50393;SDS011;36308;46.312;25.288;2023-05-29T12:20:51;5.55;;;3.20;;
50393;SDS011;36308;46.312;25.288;2023-05-29T12:23:22;6.40;;;3.28;;
50393;SDS011;36308;46.312;25.288;2023-05-29T12:25:50;4.30;;;2.80;;
50393;SDS011;36308;46.312;25.288;2023-05-29T12:28:17;4.82;;;3.08;;
50393;SDS011;36308;46.312;25.288;2023-05-29T12:30:46;5.35;;;3.38;;
50393;SDS011;36308;46.312;25.288;2023-05-29T12:33:31;6.28;;;3.40;;
50393;SDS011;36308;46.312;25.288;2023-05-29T12:36:01;8.17;;;3.17;;
50393;SDS011;36308;46.312;25.288;2023-05-29T12:38:30;5.85;;;3.40;;
50393;SDS011;36308;46.312;25.288;2023-05-29T12:40:55;7.18;;;3.55;;
50393;SDS011;36308;46.312;25.288;2023-05-29T12:43:21;4.72;;;3.20;;
50393;SDS011;36308;46.312;25.288;2023-05-29T12:45:47;4.85;;;2.80;;
50393;SDS011;36308;46.312;25.288;2023-05-29T12:50:48;4.78;;;3.00;;
50393;SDS011;36308;46.312;25.288;2023-05-29T12:53:15;4.43;;;2.90;;
50393;SDS011;36308;46.312;25.288;2023-05-29T12:55:42;6.13;;;3.72;;
50393;SDS011;36308;46.312;25.288;2023-05-29T12:58:09;6.15;;;3.20;;
50393;SDS011;36308;46.312;25.288;2023-05-29T13:00:39;5.38;;;3.13;;
50393;SDS011;36308;46.312;25.288;2023-05-29T13:03:06;3.75;;;2.90;;
50393;SDS011;36308;46.312;25.288;2023-05-29T13:05:32;5.82;;;3.45;;
50393;SDS011;36308;46.312;25.288;2023-05-29T13:07:58;5.97;;;3.25;;
50393;SDS011;36308;46.312;25.288;2023-05-29T13:10:24;5.57;;;3.28;;
50393;SDS011;36308;46.312;25.288;2023-05-29T13:12:52;4.95;;;3.20;;
50393;SDS011;36308;46.312;25.288;2023-05-29T13:15:24;4.50;;;3.10;;
50393;SDS011;36308;46.312;25.288;2023-05-29T13:17:50;6.43;;;3.30;;
50393;SDS011;36308;46.312;25.288;2023-05-29T13:20:16;5.80;;;3.50;;
50393;SDS011;36308;46.312;25.288;2023-05-29T13:22:43;5.95;;;3.47;;
50393;SDS011;36308;46.312;25.288;2023-05-29T13:25:10;4.72;;;2.83;;
50393;SDS011;36308;46.312;25.288;2023-05-29T13:27:37;5.47;;;3.20;;
50393;SDS011;36308;46.312;25.288;2023-05-29T13:30:06;3.65;;;2.90;;
50393;SDS011;36308;46.312;25.288;2023-05-29T13:32:32;5.82;;;2.88;;
50393;SDS011;36308;46.312;25.288;2023-05-29T13:34:58;3.75;;;2.72;;
50393;SDS011;36308;46.312;25.288;2023-05-29T13:37:24;7.15;;;3.10;;
50393;SDS011;36308;46.312;25.288;2023-05-29T13:39:49;6.13;;;3.33;;
50393;SDS011;36308;46.312;25.288;2023-05-29T13:42:15;6.78;;;3.00;;
50393;SDS011;36308;46.312;25.288;2023-05-29T13:44:42;4.88;;;3.00;;
50393;SDS011;36308;46.312;25.288;2023-05-29T13:47:08;7.47;;;3.40;;
50393;SDS011;36308;46.312;25.288;2023-05-29T13:49:34;9.48;;;3.72;;
50393;SDS011;36308;46.312;25.288;2023-05-29T13:52:00;6.72;;;3.40;;
50393;SDS011;36308;46.312;25.288;2023-05-29T13:54:27;5.95;;;3.13;;
50393;SDS011;36308;46.312;25.288;2023-05-29T13:56:57;7.47;;;3.53;;
50393;SDS011;36308;46.312;25.288;2023-05-29T13:59:23;5.18;;;3.03;;
50393;SDS011;36308;46.312;25.288;2023-05-29T14:01:49;7.88;;;3.63;;
50393;SDS011;36308;46.312;25.288;2023-05-29T14:04:15;5.57;;;3.28;;
50393;SDS011;36308;46.312;25.288;2023-05-29T14:06:40;6.97;;;3.08;;
50393;SDS011;36308;46.312;25.288;2023-05-29T14:09:06;5.80;;;3.53;;
50393;SDS011;36308;46.312;25.288;2023-05-29T14:11:35;6.07;;;3.25;;
50393;SDS011;36308;46.312;25.288;2023-05-29T14:14:02;5.38;;;2.95;;
50393;SDS011;36308;46.312;25.288;2023-05-29T14:16:28;7.05;;;3.03;;
50393;SDS011;36308;46.312;25.288;2023-05-29T14:18:54;6.53;;;3.17;;
50393;SDS011;36308;46.312;25.288;2023-05-29T14:21:20;4.15;;;3.28;;
50393;SDS011;36308;46.312;25.288;2023-05-29T14:23:46;5.60;;;3.22;;
50393;SDS011;36308;46.312;25.288;2023-05-29T14:26:11;7.63;;;3.10;;
50393;SDS011;36308;46.312;25.288;2023-05-29T14:28:37;4.95;;;3.35;;
50393;SDS011;36308;46.312;25.288;2023-05-29T14:31:04;6.88;;;3.00;;
50393;SDS011;36308;46.312;25.288;2023-05-29T14:33:30;7.97;;;3.33;;
50393;SDS011;36308;46.312;25.288;2023-05-29T14:35:56;6.57;;;3.40;;
50393;SDS011;36308;46.312;25.288;2023-05-29T14:38:21;3.25;;;2.83;;
50393;SDS011;36308;46.312;25.288;2023-05-29T14:40:47;6.07;;;2.85;;
50393;SDS011;36308;46.312;25.288;2023-05-29T14:43:13;4.57;;;2.97;;
50393;SDS011;36308;46.312;25.288;2023-05-29T14:45:38;6.88;;;3.20;;
50393;SDS011;36308;46.312;25.288;2023-05-29T14:48:04;5.25;;;3.10;;
50393;SDS011;36308;46.312;25.288;2023-05-29T14:50:29;4.97;;;3.53;;
50393;SDS011;36308;46.312;25.288;2023-05-29T14:52:55;6.15;;;3.30;;
50393;SDS011;36308;46.312;25.288;2023-05-29T14:55:20;6.15;;;2.75;;
50393;SDS011;36308;46.312;25.288;2023-05-29T14:57:46;6.15;;;3.13;;
50393;SDS011;36308;46.312;25.288;2023-05-29T15:00:11;6.28;;;2.90;;
50393;SDS011;36308;46.312;25.288;2023-05-29T15:02:37;5.80;;;2.95;;